createdAt,value
2017-07-16T00:00:02.763Z,0
2017-07-16T00:05:03.097Z,0
2017-07-16T00:10:02.987Z,0
2017-07-16T00:15:02.689Z,0
2017-07-16T00:20:03.429Z,1
2017-07-16T00:25:03.253Z,0
2017-07-16T00:30:02.960Z,0
2017-07-16T00:35:02.557Z,2
2017-07-16T00:40:02.853Z,2
2017-07-16T00:45:03.347Z,0
2017-07-16T00:50:02.719Z,0
2017-07-16T00:55:03.066Z,0
2017-07-16T01:00:03.377Z,3
2017-07-16T01:05:02.621Z,3
2017-07-16T01:10:03.146Z,3
2017-07-16T01:15:02.658Z,0
2017-07-16T01:20:03.175Z,0
2017-07-16T01:25:02.524Z,0
2017-07-16T01:30:03.012Z,0
2017-07-16T01:35:03.444Z,0
2017-07-16T01:40:02.886Z,0
2017-07-16T01:45:03.317Z,2
2017-07-16T01:50:02.564Z,2
2017-07-16T01:55:02.830Z,2
2017-07-16T02:00:03.067Z,2
2017-07-16T02:05:02.490Z,2
2017-07-16T02:10:02.831Z,2
2017-07-16T02:15:03.118Z,2
2017-07-16T02:20:03.359Z,3
2017-07-16T02:25:02.630Z,3
2017-07-16T02:30:03.068Z,2
2017-07-16T02:35:03.383Z,1
2017-07-16T02:40:02.854Z,1
2017-07-16T02:45:03.285Z,0
2017-07-16T02:50:02.545Z,0
2017-07-16T02:55:02.905Z,3
2017-07-16T03:00:03.363Z,0
2017-07-16T03:05:02.753Z,0
2017-07-16T03:10:03.109Z,2
2017-07-16T03:15:02.608Z,3
2017-07-16T03:20:03.043Z,1
2017-07-16T03:25:03.313Z,2
2017-07-16T03:30:02.585Z,3
2017-07-16T03:35:03.082Z,2
2017-07-16T03:40:03.382Z,2
2017-07-16T03:45:02.890Z,3
2017-07-16T03:50:03.218Z,1
2017-07-16T03:55:02.542Z,3
2017-07-16T04:00:02.985Z,3
2017-07-16T04:05:03.377Z,4
2017-07-16T04:10:02.821Z,5
2017-07-16T04:15:03.165Z,4
2017-07-16T04:20:03.473Z,7
2017-07-16T04:25:02.837Z,3
2017-07-16T04:30:02.597Z,6
2017-07-16T04:35:02.988Z,4
2017-07-16T04:40:03.503Z,2
2017-07-16T04:45:02.931Z,3
2017-07-16T04:50:02.607Z,3
2017-07-16T04:55:03.063Z,7
2017-07-16T05:00:02.466Z,6
2017-07-16T05:05:02.764Z,3
2017-07-16T05:10:03.383Z,3
2017-07-16T05:15:02.647Z,3
2017-07-16T05:20:02.897Z,7
2017-07-16T05:25:03.217Z,2
2017-07-16T05:30:02.628Z,3
2017-07-16T05:35:02.933Z,5
2017-07-16T05:40:03.296Z,4
2017-07-16T05:45:02.565Z,4
2017-07-16T05:50:02.991Z,3
2017-07-16T05:55:03.320Z,5
2017-07-16T06:00:02.621Z,4
2017-07-16T06:05:02.975Z,8
2017-07-16T06:10:03.337Z,3
2017-07-16T06:15:02.647Z,6
2017-07-16T06:20:02.936Z,5
2017-07-16T06:25:03.395Z,5
2017-07-16T06:30:02.755Z,4
2017-07-16T06:35:03.159Z,6
2017-07-16T06:40:02.645Z,7
2017-07-16T06:45:03.072Z,6
2017-07-16T06:50:03.355Z,6
2017-07-16T06:55:02.656Z,5
2017-07-16T07:00:03.133Z,6
2017-07-16T07:05:02.633Z,5
2017-07-16T07:10:02.989Z,5
2017-07-16T07:15:03.190Z,6
2017-07-16T07:20:02.494Z,4
2017-07-16T07:25:02.777Z,7
2017-07-16T07:30:03.421Z,4
2017-07-16T07:35:02.893Z,7
2017-07-16T07:40:03.320Z,2
2017-07-16T07:45:02.721Z,6
2017-07-16T07:50:03.132Z,6
2017-07-16T07:55:02.556Z,6
2017-07-16T08:00:03.011Z,5
2017-07-16T08:05:03.359Z,1
2017-07-16T08:10:02.690Z,7
2017-07-16T08:15:03.123Z,5
2017-07-16T08:20:02.554Z,5
2017-07-16T08:25:02.763Z,3
2017-07-16T08:30:03.278Z,6
2017-07-16T08:35:02.683Z,4
2017-07-16T08:40:03.125Z,6
2017-07-16T08:45:02.476Z,3
2017-07-16T08:50:02.727Z,5
2017-07-16T08:55:03.005Z,6
2017-07-16T09:00:03.441Z,4
2017-07-16T09:05:02.945Z,6
2017-07-16T09:10:03.250Z,5
2017-07-16T09:15:02.683Z,6
2017-07-16T09:20:03.074Z,3
2017-07-16T09:25:02.513Z,5
2017-07-16T09:30:02.978Z,4
2017-07-16T09:35:03.253Z,6
2017-07-16T09:40:02.505Z,5
2017-07-16T09:45:02.776Z,7
2017-07-16T09:50:03.289Z,3
2017-07-16T09:55:02.535Z,6
2017-07-16T10:00:02.852Z,7
2017-07-16T10:05:03.297Z,7
2017-07-16T10:10:02.767Z,7
2017-07-16T10:15:03.040Z,6
2017-07-16T10:20:03.312Z,3
2017-07-16T10:25:02.716Z,5
2017-07-16T10:30:03.122Z,6
2017-07-16T10:35:03.336Z,6
2017-07-16T10:40:02.837Z,4
2017-07-16T10:45:03.105Z,9
2017-07-16T10:50:03.343Z,6
2017-07-16T10:55:02.628Z,6
2017-07-16T11:00:02.937Z,5
2017-07-16T11:05:03.315Z,6
2017-07-16T11:10:02.630Z,7
2017-07-16T11:15:02.946Z,5
2017-07-16T11:20:03.439Z,4
2017-07-16T11:25:02.880Z,6
2017-07-16T11:30:03.127Z,6
2017-07-16T11:35:02.514Z,1
2017-07-16T11:40:03.055Z,7
2017-07-16T11:45:03.356Z,3
2017-07-16T11:50:02.766Z,4
2017-07-16T11:55:03.233Z,3
2017-07-16T12:00:02.657Z,5
2017-07-16T12:05:03.111Z,5
2017-07-16T12:10:02.633Z,5
2017-07-16T12:15:02.992Z,6
2017-07-16T12:20:02.555Z,3
2017-07-16T12:25:03.005Z,6
2017-07-16T12:30:03.304Z,5
2017-07-16T12:35:02.593Z,2
2017-07-16T12:40:03.124Z,5
2017-07-16T12:45:03.356Z,6
2017-07-16T12:50:02.620Z,5
2017-07-16T12:55:02.946Z,8
2017-07-16T13:00:03.193Z,3
2017-07-16T13:05:02.531Z,6
2017-07-16T13:10:02.840Z,4
2017-07-16T13:15:03.476Z,4
2017-07-16T13:25:03.367Z,2
2017-07-16T13:30:02.781Z,2
2017-07-16T13:35:03.133Z,3
2017-07-16T13:40:02.697Z,4
2017-07-16T13:45:03.006Z,4
2017-07-16T13:50:03.413Z,6
2017-07-16T13:55:02.679Z,8
2017-07-16T14:00:03.140Z,6
2017-07-16T14:05:02.628Z,3
2017-07-16T14:10:03.028Z,5
2017-07-16T14:15:03.344Z,3
2017-07-16T14:20:02.763Z,3
2017-07-16T14:25:03.194Z,5
2017-07-16T14:30:02.545Z,4
2017-07-16T14:35:02.966Z,6
2017-07-16T14:40:03.461Z,7
2017-07-16T14:45:02.914Z,7
2017-07-16T14:50:03.366Z,5
2017-07-16T14:55:02.614Z,6
2017-07-16T15:00:02.910Z,4
2017-07-16T15:05:03.424Z,3
2017-07-16T15:10:02.728Z,3
2017-07-16T15:15:03.198Z,6
2017-07-16T15:20:02.624Z,7
2017-07-16T15:25:03.039Z,5
2017-07-16T15:30:03.341Z,6
2017-07-16T15:35:02.806Z,7
2017-07-16T15:40:03.130Z,6
2017-07-16T15:45:02.581Z,7
2017-07-16T15:50:02.838Z,4
2017-07-16T15:55:03.222Z,0
2017-07-16T16:00:02.500Z,3
2017-07-16T16:05:03.095Z,1
2017-07-16T16:10:02.573Z,2
2017-07-16T16:15:03.031Z,5
2017-07-16T16:20:02.552Z,1
2017-07-16T16:25:03.028Z,2
2017-07-16T16:30:03.263Z,2
2017-07-16T16:35:02.671Z,2
2017-07-16T16:40:03.200Z,0
2017-07-16T16:45:02.645Z,2
2017-07-16T16:50:03.096Z,3
2017-07-16T16:55:03.401Z,2
2017-07-16T17:00:02.750Z,0
2017-07-16T17:05:03.170Z,0
2017-07-16T17:10:02.674Z,0
2017-07-16T17:15:03.127Z,3
2017-07-16T17:20:02.615Z,4
2017-07-16T17:25:02.868Z,7
2017-07-16T17:30:03.310Z,4
2017-07-16T17:35:02.716Z,3
2017-07-16T17:40:03.052Z,7
2017-07-16T17:45:03.293Z,3
2017-07-16T17:50:02.504Z,3
2017-07-16T17:55:02.789Z,3
2017-07-16T18:00:03.231Z,3
2017-07-16T18:05:02.571Z,3
2017-07-16T18:10:03.111Z,2
2017-07-16T18:15:03.356Z,5
2017-07-16T18:20:02.648Z,3
2017-07-16T18:25:02.873Z,2
2017-07-16T18:30:03.270Z,2
2017-07-16T18:35:02.717Z,3
2017-07-16T18:40:03.051Z,3
2017-07-16T18:45:02.472Z,3
2017-07-16T18:50:02.854Z,2
2017-07-16T18:55:03.154Z,3
2017-07-16T19:00:03.439Z,3
2017-07-16T19:05:02.950Z,2
2017-07-16T19:10:03.450Z,3
2017-07-16T19:15:02.910Z,3
2017-07-16T19:20:03.355Z,2
2017-07-16T19:25:02.696Z,0
2017-07-16T19:30:02.910Z,2
2017-07-16T19:35:03.311Z,0
2017-07-16T19:40:02.748Z,0
2017-07-16T19:45:03.124Z,0
2017-07-16T19:50:02.532Z,0
2017-07-16T19:55:03.005Z,0
2017-07-16T20:00:02.499Z,0
2017-07-16T20:05:02.862Z,0
2017-07-16T20:10:03.121Z,0
2017-07-16T20:15:02.689Z,0
2017-07-16T20:20:03.081Z,0
2017-07-16T20:25:03.359Z,0
2017-07-16T20:30:02.744Z,0
2017-07-16T20:35:03.161Z,0
2017-07-16T20:40:02.548Z,0
2017-07-16T20:45:02.855Z,0
2017-07-16T20:50:03.164Z,0
2017-07-16T20:55:02.687Z,0
2017-07-16T21:00:03.111Z,0
2017-07-16T21:05:03.435Z,0
2017-07-16T21:10:02.777Z,0
2017-07-16T21:15:03.181Z,0
2017-07-16T21:20:02.480Z,0
2017-07-16T21:25:02.712Z,0
2017-07-16T21:30:03.104Z,0
2017-07-16T21:35:02.611Z,0
2017-07-16T21:40:03.165Z,0
2017-07-16T21:45:03.437Z,0
2017-07-16T21:50:02.766Z,0
2017-07-16T21:55:03.472Z,0
2017-07-16T22:00:02.775Z,0
2017-07-16T22:05:03.055Z,0
2017-07-16T22:10:02.576Z,0
2017-07-16T22:15:02.996Z,0
2017-07-16T22:20:03.396Z,0
2017-07-16T22:25:02.848Z,0
2017-07-16T22:30:03.136Z,0
2017-07-16T22:35:02.483Z,0
2017-07-16T22:40:02.721Z,0
2017-07-16T22:45:03.122Z,0
2017-07-16T22:50:02.598Z,0
2017-07-16T22:55:02.845Z,0
2017-07-16T23:00:03.302Z,0
2017-07-16T23:05:02.500Z,0
2017-07-16T23:10:02.883Z,0
2017-07-16T23:15:03.207Z,0
2017-07-16T23:20:02.628Z,0
2017-07-16T23:25:02.916Z,0
2017-07-16T23:30:03.327Z,0
2017-07-16T23:35:02.781Z,0
2017-07-16T23:40:03.171Z,0
2017-07-16T23:45:03.452Z,2
2017-07-16T23:50:02.903Z,2
2017-07-16T23:55:03.184Z,0
